Time;durP1;ratioP1;P1;durP2;ratioP2;P2;SDS_P1;SDS_P2;PMS_P1;PMS_P2;Temp;Humidity;BMP_temperature;BMP_pressure;BME280_temperature;BME280_humidity;BME280_pressure;Samples;Min_cycle;Max_cycle;Signal;HPM_P1;HPM_P2
2022/12/09 00:01:13;;;;;;;17.33;11.05;;;;;;;-0.35;100.00;99159.78;5010881;28;20409;-67
2022/12/09 00:03:39;;;;;;;19.58;10.55;;;;;;;-0.35;100.00;99160.66;5020333;28;20021;-67
2022/12/09 00:06:09;;;;;;;21.25;11.27;;;;;;;-0.38;100.00;99144.13;5032121;28;20024;-67
2022/12/09 00:08:35;;;;;;;24.13;11.30;;;;;;;-0.49;100.00;99125.88;5015409;28;20521;-67
2022/12/09 00:11:01;;;;;;;19.23;10.40;;;;;;;-0.37;100.00;99141.50;5016247;28;20033;-67
2022/12/09 00:13:26;;;;;;;16.33;11.18;;;;;;;-0.35;100.00;99144.13;5021587;28;20056;-67
2022/12/09 00:15:52;;;;;;;19.52;11.25;;;;;;;-0.36;100.00;99137.13;5035798;28;20052;-67
2022/12/09 00:18:17;;;;;;;16.95;9.82;;;;;;;-0.37;100.00;99133.66;5036133;28;20063;-67
2022/12/09 00:20:43;;;;;;;15.50;10.73;;;;;;;-0.41;100.00;99128.44;5032471;28;20445;-67
2022/12/09 00:23:08;;;;;;;22.50;11.00;;;;;;;-0.40;100.00;99145.88;5014992;28;20034;-67
2022/12/09 00:25:33;;;;;;;17.88;10.43;;;;;;;-0.39;100.00;99142.38;5014512;28;20026;-67
2022/12/09 00:27:59;;;;;;;18.45;11.10;;;;;;;-0.41;100.00;99134.53;5016228;28;20026;-67
2022/12/09 00:30:24;;;;;;;17.40;10.38;;;;;;;-0.40;100.00;99131.06;5017533;28;20101;-66
2022/12/09 00:32:50;;;;;;;18.55;11.23;;;;;;;-0.37;100.00;99125.84;5017318;28;20477;-67
2022/12/09 00:35:15;;;;;;;16.88;11.75;;;;;;;-0.36;100.00;99130.16;5015274;28;20034;-66
2022/12/09 00:37:40;;;;;;;18.15;10.30;;;;;;;-0.43;100.00;99118.00;5017530;28;20044;-67
2022/12/09 00:40:07;;;;;;;19.65;10.45;;;;;;;-0.37;100.00;99130.19;5032541;28;20109;-67
2022/12/09 00:42:32;;;;;;;18.02;10.48;;;;;;;-0.38;100.00;99131.91;5018066;28;20808;-67
2022/12/09 00:44:57;;;;;;;18.73;10.35;;;;;;;-0.38;100.00;99129.31;5017282;28;20032;-67
2022/12/09 00:47:23;;;;;;;17.88;10.30;;;;;;;-0.37;100.00;99119.72;5032789;28;20029;-66
2022/12/09 00:49:48;;;;;;;19.40;11.18;;;;;;;-0.32;100.00;99120.59;5035148;28;20025;-67
2022/12/09 00:52:14;;;;;;;18.70;11.40;;;;;;;-0.27;100.00;99119.72;5019899;28;20477;-67
2022/12/09 00:54:39;;;;;;;16.73;10.18;;;;;;;-0.21;100.00;99122.28;5015153;28;20065;-67
2022/12/09 00:57:04;;;;;;;17.02;10.18;;;;;;;-0.16;100.00;99122.25;5028184;28;20048;-67
2022/12/09 00:59:30;;;;;;;20.52;11.18;;;;;;;-0.07;100.00;99119.63;5033753;28;20018;-67
2022/12/09 01:01:55;;;;;;;20.70;11.88;;;;;;;-0.09;100.00;99101.34;5019935;28;20037;-67
2022/12/09 01:04:23;;;;;;;20.95;12.23;;;;;;;-0.02;100.00;99103.00;5028205;28;20456;-67
2022/12/09 01:06:48;;;;;;;19.25;13.00;;;;;;;0.08;100.00;99108.19;5034926;28;20071;-67
2022/12/09 01:09:14;;;;;;;21.60;12.00;;;;;;;0.14;100.00;99116.00;5021781;28;20030;-67
2022/12/09 01:11:39;;;;;;;22.80;11.52;;;;;;;0.14;100.00;99113.38;5014030;28;20089;-67
2022/12/09 01:14:04;;;;;;;23.40;11.18;;;;;;;0.14;100.00;99113.38;5015426;28;20030;-67
2022/12/09 01:16:33;;;;;;;30.73;12.07;;;;;;;0.17;100.00;99118.59;5033013;28;20037;-67
2022/12/09 01:19:01;;;;;;;34.00;12.70;;;;;;;0.17;100.00;99108.13;5035860;28;20021;-67
2022/12/09 01:21:28;;;;;;;22.85;10.30;;;;;;;0.17;100.00;99111.63;5026210;28;20501;-67
2022/12/09 01:23:53;;;;;;;21.20;12.13;;;;;;;0.17;100.00;99118.59;5015985;28;20041;-67
2022/12/09 01:26:19;;;;;;;23.58;11.15;;;;;;;0.16;100.00;99111.63;5019052;28;20665;-67
2022/12/09 01:28:45;;;;;;;22.52;11.45;;;;;;;0.15;100.00;99107.31;5016981;28;20026;-67
2022/12/09 01:31:16;;;;;;;20.02;10.60;;;;;;;0.18;100.00;99104.66;5016604;28;20070;-68
2022/12/09 01:33:42;;;;;;;17.77;10.77;;;;;;;0.16;100.00;99106.41;5035210;28;20032;-67
2022/12/09 01:36:17;;;;;;;20.25;11.48;;;;;;;0.16;100.00;99101.19;5036856;28;20033;-68
2022/12/09 01:38:43;;;;;;;17.52;10.18;;;;;;;0.13;100.00;99106.44;5033112;28;20036;-68
2022/12/09 01:41:09;;;;;;;21.38;10.95;;;;;;;0.09;100.00;99099.47;5037694;28;20025;-68
2022/12/09 01:43:35;;;;;;;21.98;11.50;;;;;;;0.06;100.00;99103.00;5035182;28;20045;-68
2022/12/09 01:46:01;;;;;;;24.15;11.73;;;;;;;0.05;100.00;99097.78;5022316;28;20433;-68
2022/12/09 01:48:30;;;;;;;21.48;13.20;;;;;;;0.02;100.00;99092.56;5020129;28;20057;-68
2022/12/09 01:51:00;;;;;;;22.13;12.23;;;;;;;-0.02;100.00;99086.47;5019951;28;20118;-68
2022/12/09 01:53:29;;;;;;;21.02;11.73;;;;;;;-0.19;100.00;99063.06;5033175;28;20033;-69
2022/12/09 01:55:59;;;;;;;23.73;14.75;;;;;;;-0.07;100.00;99083.88;5021081;28;20026;-68
2022/12/09 01:58:25;;;;;;;19.65;11.52;;;;;;;-0.09;100.00;99079.53;5018530;28;20068;-69
2022/12/09 02:00:50;;;;;;;20.95;11.90;;;;;;;0.00;100.00;99079.50;5018870;28;20465;-68
2022/12/09 02:03:16;;;;;;;33.72;14.27;;;;;;;0.07;100.00;99077.72;5028939;28;20029;-68
2022/12/09 02:05:43;;;;;;;21.40;13.43;;;;;;;0.11;100.00;99082.03;5039495;28;20041;-68
2022/12/09 02:08:17;;;;;;;24.45;13.73;;;;;;;0.06;100.00;99073.34;5039748;28;20041;-68
2022/12/09 02:11:09;;;;;;;28.40;14.75;;;;;;;0.09;100.00;99068.97;5039565;28;20033;-69
2022/12/09 02:13:53;;;;;;;22.30;13.95;;;;;;;0.07;100.00;99059.44;5037726;28;20051;-68
2022/12/09 02:16:22;;;;;;;25.35;13.35;;;;;;;0.06;100.00;99057.66;5036609;28;20033;-68
2022/12/09 02:18:54;;;;;;;35.67;16.83;;;;;;;0.02;100.00;99061.19;5037159;28;20341;-69
2022/12/09 02:21:28;;;;;;;32.20;15.77;;;;;;;0.03;100.00;99063.81;5036827;28;20021;-68
2022/12/09 02:24:55;;;;;;;27.90;14.88;;;;;;;-0.09;100.00;99038.63;5020318;28;20398;-68
2022/12/09 02:27:41;;;;;;;37.05;15.15;;;;;;;-0.01;100.00;99052.50;4999243;28;20042;-67
2022/12/09 02:30:11;;;;;;;30.77;15.18;;;;;;;-0.02;100.00;99048.13;5019078;28;20477;-68
2022/12/09 02:33:09;;;;;;;40.33;14.85;;;;;;;-0.06;100.00;99033.34;5020595;28;20128;-68
2022/12/09 02:36:08;;;;;;;32.35;15.27;;;;;;;-0.14;100.00;99029.06;5017737;28;20021;-68
2022/12/09 02:38:37;;;;;;;32.92;15.27;;;;;;;-0.22;100.00;99023.88;5013238;28;20118;-68
2022/12/09 02:41:11;;;;;;;24.75;12.93;;;;;;;-0.29;100.00;99023.91;5021894;28;20033;-68
2022/12/09 02:43:43;;;;;;;;;;;;;;;-0.33;100.00;99028.28;5019118;28;20041;-68
2022/12/09 02:46:10;;;;;;;22.63;9.98;;;;;;;-0.39;100.00;99017.88;5016658;28;19913;-68
2022/12/09 02:48:40;;;;;;;22.42;12.38;;;;;;;-0.43;100.00;99013.53;5021170;28;20071;-68
2022/12/09 02:51:12;;;;;;;21.63;11.57;;;;;;;-0.50;100.00;99017.06;5018233;28;20037;-68
2022/12/09 02:53:38;;;;;;;21.95;11.57;;;;;;;-0.55;100.00;99025.78;5025727;28;20025;-68
2022/12/09 02:56:06;;;;;;;21.23;11.32;;;;;;;-0.60;100.00;99020.59;5036066;28;20479;-68
2022/12/09 02:58:31;;;;;;;26.15;11.80;;;;;;;-0.63;100.00;99009.28;5035940;28;20462;-68
2022/12/09 03:00:57;;;;;;;23.08;11.75;;;;;;;-0.67;100.00;99005.81;5036194;28;20037;-68
2022/12/09 03:03:23;;;;;;;22.23;11.43;;;;;;;-0.71;100.00;99004.09;5034053;28;20032;-68
2022/12/09 03:06:00;;;;;;;18.17;11.38;;;;;;;-0.76;100.00;99002.38;5037196;28;20033;-69
2022/12/09 03:08:55;;;;;;;20.75;9.80;;;;;;;-0.79;100.00;98998.03;5037085;28;20034;-67
2022/12/09 03:11:23;;;;;;;19.95;11.10;;;;;;;-0.91;100.00;98985.06;5032408;28;20638;-68
2022/12/09 03:14:11;;;;;;;22.42;11.23;;;;;;;-0.85;100.00;98998.06;5019038;28;20026;-69
2022/12/09 03:16:58;;;;;;;18.73;10.90;;;;;;;-0.97;100.00;98979.00;5014133;28;20029;-68
2022/12/09 03:19:46;;;;;;;21.90;11.00;;;;;;;-0.83;100.00;98992.84;5028164;28;20033;-67
2022/12/09 03:22:16;;;;;;;14.85;9.80;;;;;;;-0.80;100.00;98992.81;5032416;28;20033;-68
2022/12/09 03:24:51;;;;;;;19.27;10.15;;;;;;;-0.82;100.00;98992.81;5033961;28;20025;-68
2022/12/09 03:27:24;;;;;;;18.52;9.52;;;;;;;-0.84;100.00;98986.75;5023432;28;20060;-68
2022/12/09 03:29:51;;;;;;;23.02;12.80;;;;;;;-0.87;100.00;98976.31;5016641;28;20113;-69
2022/12/09 03:32:19;;;;;;;13.75;9.10;;;;;;;-0.89;100.00;98988.50;5018980;28;20034;-68
2022/12/09 03:34:48;;;;;;;14.32;8.18;;;;;;;-0.85;100.00;98981.53;5016876;28;20029;-68
2022/12/09 03:37:18;;;;;;;15.15;8.50;;;;;;;-0.83;100.00;98974.56;5032464;28;20497;-68
2022/12/09 03:39:45;;;;;;;14.40;7.72;;;;;;;-0.83;100.00;98966.75;5034611;28;20017;-68
2022/12/09 03:42:20;;;;;;;14.65;8.27;;;;;;;-0.79;100.00;98969.31;5035543;28;20112;-68
2022/12/09 03:44:53;;;;;;;17.73;8.57;;;;;;;-0.73;100.00;98963.22;5037518;28;20025;-69
2022/12/09 03:47:19;;;;;;;17.83;9.75;;;;;;;-0.73;100.00;98958.88;5023872;28;20070;-69
2022/12/09 03:49:45;;;;;;;16.52;8.68;;;;;;;-0.73;100.00;98953.66;5023666;28;20030;-69
2022/12/09 03:52:19;;;;;;;13.27;7.63;;;;;;;-0.72;100.00;98959.72;5023957;28;20030;-69
2022/12/09 03:54:48;;;;;;;14.52;8.60;;;;;;;-0.78;100.00;98955.41;5038662;28;20124;-69
2022/12/09 03:57:16;;;;;;;10.65;6.90;;;;;;;-0.69;100.00;98960.56;5035497;28;20032;-70
2022/12/09 03:59:48;;;;;;;12.20;7.07;;;;;;;-0.70;100.00;98952.75;5044057;28;20036;-70
2022/12/09 04:02:14;;;;;;;14.27;7.75;;;;;;;-0.79;100.00;98938.00;5040331;28;20049;-70
2022/12/09 04:04:40;;;;;;;9.95;6.15;;;;;;;-0.80;100.00;98941.50;5043210;28;20512;-70
2022/12/09 04:07:09;;;;;;;17.50;6.80;;;;;;;-0.77;100.00;98941.47;5047389;28;20092;-71
2022/12/09 04:09:34;;;;;;;22.25;8.05;;;;;;;-0.75;100.00;98942.34;5052070;28;20046;-72
2022/12/09 04:12:00;;;;;;;13.10;7.28;;;;;;;-0.75;100.00;98939.72;5037412;28;20038;-71
2022/12/09 04:14:25;;;;;;;10.50;5.88;;;;;;;-0.75;100.00;98931.03;5035698;28;20034;-72
2022/12/09 04:16:51;;;;;;;13.40;6.20;;;;;;;-0.74;100.00;98936.22;5034158;28;20116;-71
2022/12/09 04:19:16;;;;;;;8.80;5.45;;;;;;;-0.72;100.00;98921.44;5038003;28;20133;-72
2022/12/09 04:21:42;;;;;;;8.80;5.07;;;;;;;-0.65;100.00;98919.66;5037502;28;20018;-71
2022/12/09 04:24:08;;;;;;;9.38;5.25;;;;;;;-0.65;100.00;98915.31;5051889;28;20025;-71
2022/12/09 04:26:33;;;;;;;10.63;5.43;;;;;;;-0.64;100.00;98903.97;5053769;28;20053;-71
2022/12/09 04:28:59;;;;;;;11.73;5.00;;;;;;;-0.56;100.00;98911.78;5037711;28;20009;-72
2022/12/09 04:31:24;;;;;;;6.85;4.50;;;;;;;-0.57;100.00;98908.28;5039052;28;20021;-72
2022/12/09 04:33:50;;;;;;;8.32;5.13;;;;;;;-0.60;100.00;98897.88;5037420;28;20049;-72
2022/12/09 04:36:17;;;;;;;10.23;5.10;;;;;;;-0.61;100.00;98901.34;5040182;28;20048;-72
2022/12/09 04:38:43;;;;;;;7.97;4.63;;;;;;;-0.59;100.00;98885.66;5038249;28;20018;-72
2022/12/09 04:41:09;;;;;;;10.48;6.13;;;;;;;-0.62;100.00;98878.72;5055290;28;20061;-72
2022/12/09 04:43:35;;;;;;;10.95;6.10;;;;;;;-0.54;100.00;98883.88;5058136;28;20061;-72
2022/12/09 04:46:03;;;;;;;12.70;6.32;;;;;;;-0.45;100.00;98892.56;5048913;28;20034;-72
2022/12/09 04:48:29;;;;;;;8.40;4.80;;;;;;;-0.41;100.00;98888.16;5038091;28;20082;-72
2022/12/09 04:50:55;;;;;;;9.85;6.55;;;;;;;-0.39;100.00;98884.66;5066306;28;20037;-72
2022/12/09 04:53:21;;;;;;;12.70;6.95;;;;;;;-0.34;100.00;98875.06;5037863;28;20034;-72
2022/12/09 04:55:46;;;;;;;11.65;6.32;;;;;;;-0.34;100.00;98868.94;5048580;28;20084;-72
2022/12/09 04:58:12;;;;;;;21.67;7.50;;;;;;;-0.43;100.00;98863.81;5056578;28;20033;-73
2022/12/09 05:00:37;;;;;;;14.10;7.00;;;;;;;-0.34;100.00;98869.81;5056671;28;20028;-72
2022/12/09 05:03:02;;;;;;;11.50;5.75;;;;;;;-0.32;100.00;98867.19;5047366;28;20312;-72
2022/12/09 05:05:28;;;;;;;12.70;5.95;;;;;;;-0.32;100.00;98867.19;5023834;28;20044;-72
2022/12/09 05:07:53;;;;;;;7.78;5.38;;;;;;;-0.29;100.00;98865.44;5019774;28;20038;-72
2022/12/09 05:10:19;;;;;;;14.07;7.07;;;;;;;-0.30;100.00;98865.44;5018050;28;20032;-73
2022/12/09 05:12:44;;;;;;;12.98;7.10;;;;;;;-0.30;100.00;98862.84;5018654;28;21005;-72
2022/12/09 05:15:10;;;;;;;24.25;12.95;;;;;;;-0.21;100.00;98866.22;5017591;28;20026;-73
2022/12/09 05:17:35;;;;;;;22.35;13.27;;;;;;;-0.15;100.00;98858.34;5016043;28;20096;-72
2022/12/09 05:20:01;;;;;;;18.45;9.00;;;;;;;-0.11;100.00;98857.44;5026891;28;20032;-72
2022/12/09 05:22:26;;;;;;;16.55;8.60;;;;;;;-0.08;100.00;98849.56;5029419;28;20037;-73
2022/12/09 05:24:52;;;;;;;15.23;7.50;;;;;;;-0.07;100.00;98842.59;5033405;28;20033;-73
2022/12/09 05:27:17;;;;;;;16.42;7.70;;;;;;;-0.07;100.00;98853.91;5025304;28;20034;-72
2022/12/09 05:29:43;;;;;;;10.63;6.78;;;;;;;-0.05;100.00;98853.91;5024713;28;20050;-73
2022/12/09 05:32:08;;;;;;;10.98;6.78;;;;;;;-0.03;100.00;98846.91;5025369;28;20030;-74
2022/12/09 05:34:34;;;;;;;10.70;6.45;;;;;;;-0.03;100.00;98849.50;5023116;28;20450;-74
2022/12/09 05:36:59;;;;;;;12.50;6.72;;;;;;;-0.06;100.00;98853.03;5024744;28;20033;-73
2022/12/09 05:39:25;;;;;;;10.30;6.70;;;;;;;-0.01;100.00;98847.75;5030448;28;20061;-74
2022/12/09 05:41:50;;;;;;;11.63;6.10;;;;;;;0.02;100.00;98862.56;5043606;28;20491;-75
2022/12/09 05:44:16;;;;;;;9.25;5.78;;;;;;;0.02;100.00;98847.72;5043705;28;20055;-74
2022/12/09 05:46:41;;;;;;;9.20;5.97;;;;;;;0.03;100.00;98835.53;5044555;28;20025;-75
2022/12/09 05:49:07;;;;;;;11.85;6.85;;;;;;;0.01;100.00;98840.78;5032804;28;20112;-76
2022/12/09 05:51:32;;;;;;;9.20;5.88;;;;;;;-0.04;100.00;98827.75;5042967;28;20038;-72
2022/12/09 05:54:03;;;;;;;10.07;6.80;;;;;;;0.02;100.00;98836.44;5037670;28;20042;-72
2022/12/09 05:56:29;;;;;;;12.75;6.40;;;;;;;0.05;100.00;98841.63;5017357;28;20401;-74
2022/12/09 05:58:55;;;;;;;8.63;5.32;;;;;;;0.05;100.00;98836.41;5022442;28;20065;-74
2022/12/09 06:01:20;;;;;;;7.88;6.10;;;;;;;0.06;100.00;98848.56;5022709;28;20029;-74
2022/12/09 06:03:47;;;;;;;9.45;6.05;;;;;;;0.09;100.00;98830.22;5034487;28;20086;-74
2022/12/09 06:06:15;;;;;;;9.45;5.85;;;;;;;0.14;100.00;98839.78;5024862;28;20033;-75
2022/12/09 06:08:43;;;;;;;8.90;5.78;;;;;;;0.19;100.00;98842.34;5030232;28;20046;-74
2022/12/09 06:11:11;;;;;;;10.73;6.20;;;;;;;0.24;100.00;98840.53;5045403;28;20036;-75
2022/12/09 06:13:36;;;;;;;10.63;5.35;;;;;;;0.29;100.00;98846.59;5054648;28;20019;-72
2022/12/09 06:16:03;;;;;;;8.25;5.47;;;;;;;0.30;100.00;98836.09;5050658;28;20049;-73
2022/12/09 06:18:29;;;;;;;9.68;5.80;;;;;;;0.36;100.00;98848.25;5037339;28;20037;-74
2022/12/09 06:20:54;;;;;;;9.07;6.18;;;;;;;0.37;100.00;98834.28;5035315;28;20048;-75
2022/12/09 06:23:20;;;;;;;8.82;5.35;;;;;;;0.32;100.00;98825.63;5040019;28;20014;-72
2022/12/09 06:25:45;;;;;;;9.35;5.28;;;;;;;0.42;100.00;98842.94;5039165;23;20136;-78
2022/12/09 06:28:11;;;;;;;15.77;6.32;;;;;;;0.30;100.00;98816.97;5016754;28;20029;-77
2022/12/09 06:30:37;;;;;;;16.85;5.95;;;;;;;0.25;100.00;98800.47;5013170;28;20378;-77
2022/12/09 06:33:02;;;;;;;12.40;6.18;;;;;;;0.34;100.00;98816.91;5022325;28;20037;-77
2022/12/09 06:35:28;;;;;;;9.10;5.90;;;;;;;0.43;100.00;98823.78;5015796;28;20026;-78
2022/12/09 06:37:53;;;;;;;10.82;5.70;;;;;;;0.36;100.00;98806.41;5027679;28;20025;-78
2022/12/09 06:40:22;;;;;;;14.98;6.35;;;;;;;0.47;100.00;98825.47;5012427;28;20044;-78
2022/12/09 06:42:49;;;;;;;9.27;5.82;;;;;;;0.52;100.00;98828.88;4991834;28;20030;-78
2022/12/09 06:45:16;;;;;;;10.77;5.93;;;;;;;0.52;100.00;98828.88;4990991;28;20413;-78
2022/12/09 06:47:41;;;;;;;13.02;5.60;;;;;;;0.42;100.00;98807.22;4991167;28;20037;-78
2022/12/09 06:50:08;;;;;;;10.90;6.38;;;;;;;0.55;100.00;98837.56;4976381;28;20418;-78
2022/12/09 06:52:34;;;;;;;13.82;7.75;;;;;;;0.50;100.00;98820.19;5002646;28;20030;-77
2022/12/09 06:55:00;;;;;;;10.90;6.90;;;;;;;0.48;100.00;98821.97;5011253;28;20032;-78
2022/12/09 06:57:25;;;;;;;14.25;6.65;;;;;;;0.46;100.00;98813.28;5008545;28;20018;-77
2022/12/09 06:59:51;;;;;;;14.38;6.95;;;;;;;0.40;100.00;98813.34;4991835;28;20037;-78
2022/12/09 07:02:16;;;;;;;11.68;5.90;;;;;;;0.28;100.00;98793.41;4994380;28;20030;-77
2022/12/09 07:04:42;;;;;;;10.15;5.75;;;;;;;0.32;100.00;98795.13;5004074;28;20161;-77
2022/12/09 07:07:09;;;;;;;9.85;6.82;;;;;;;0.40;100.00;98814.22;4990986;28;20490;-78
2022/12/09 07:09:35;;;;;;;11.88;6.35;;;;;;;0.45;100.00;98822.88;4992797;28;20459;-78
2022/12/09 07:12:00;;;;;;;7.57;5.47;;;;;;;0.42;100.00;98811.56;4992967;28;20030;-78
2022/12/09 07:14:26;;;;;;;12.30;6.80;;;;;;;0.46;100.00;98814.13;4990746;28;20034;-77
2022/12/09 07:16:51;;;;;;;9.45;6.43;;;;;;;0.49;100.00;98808.88;4972252;28;20026;-77
2022/12/09 07:19:19;;;;;;;8.82;5.47;;;;;;;0.53;100.00;98821.03;4972715;28;20117;-78
2022/12/09 07:21:45;;;;;;;22.70;11.20;;;;;;;0.53;100.00;98825.41;5002591;28;20030;-78
2022/12/09 07:24:11;;;;;;;19.27;10.85;;;;;;;0.30;100.00;98783.81;5007885;28;20030;-77
2022/12/09 07:26:37;;;;;;;13.10;7.93;;;;;;;0.48;100.00;98801.06;5016246;28;20074;-78
2022/12/09 07:29:04;;;;;;;11.13;7.97;;;;;;;0.63;100.00;98817.41;5011263;28;20029;-78
2022/12/09 07:31:30;;;;;;;12.07;6.72;;;;;;;0.70;100.00;98824.31;5010151;28;20029;-78
2022/12/09 07:33:57;;;;;;;15.32;8.32;;;;;;;0.40;100.00;98771.50;5007895;28;20030;-78
2022/12/09 07:36:24;;;;;;;14.40;8.63;;;;;;;0.72;100.00;98837.38;4991368;28;20030;-78
2022/12/09 07:39:06;;;;;;;12.63;7.30;;;;;;;0.77;100.00;98833.81;5007060;28;20026;-78
2022/12/09 07:41:32;;;;;;;11.00;6.40;;;;;;;0.69;100.00;98814.72;4992133;28;20026;-78
2022/12/09 07:43:58;;;;;;;11.95;6.50;;;;;;;0.77;100.00;98820.75;4996770;28;20084;-78
2022/12/09 07:46:26;;;;;;;11.07;6.63;;;;;;;0.91;100.00;98831.00;5011501;28;20022;-78
2022/12/09 07:48:52;;;;;;;11.32;6.68;;;;;;;0.99;100.00;98832.63;5010342;28;20022;-78
2022/12/09 07:51:17;;;;;;;10.63;7.20;;;;;;;0.88;100.00;98807.50;5007958;28;20033;-77
2022/12/09 07:53:43;;;;;;;15.70;6.60;;;;;;;1.08;100.00;98816.81;5009304;28;20033;-78
2022/12/09 07:56:12;;;;;;;11.43;6.97;;;;;;;1.34;100.00;98824.28;5008818;28;20027;-78
2022/12/09 07:58:37;;;;;;;11.70;6.88;;;;;;;1.43;100.00;98812.78;5002938;28;20017;-78
2022/12/09 08:01:08;;;;;;;10.20;6.30;;;;;;;1.59;100.00;98828.25;5012106;28;20036;-78
2022/12/09 08:03:34;;;;;;;14.30;6.30;;;;;;;1.67;100.00;98822.88;5004845;28;20058;-77
2022/12/09 08:05:59;;;;;;;12.32;7.65;;;;;;;1.66;100.00;98821.16;4992498;28;20026;-78
2022/12/09 08:08:25;;;;;;;13.68;6.88;;;;;;;1.67;100.00;98800.16;4991447;28;20030;-77
2022/12/09 08:10:50;;;;;;;11.05;7.20;;;;;;;1.83;100.00;98813.88;4991244;28;20034;-78
2022/12/09 08:13:16;;;;;;;13.38;7.63;;;;;;;2.11;100.00;98830.88;4992488;28;20034;-77
2022/12/09 08:15:41;;;;;;;17.50;7.50;;;;;;;1.99;100.00;98776.88;4990977;28;20704;-78
2022/12/09 08:18:07;;;;;;;11.85;6.45;;;;;;;2.36;100.00;98817.25;4990538;28;20389;-78
2022/12/09 08:20:32;;;;;;;14.07;7.45;;;;;;;2.50;100.00;98812.59;5009349;28;20037;-78
2022/12/09 08:22:58;;;;;;;10.85;6.90;;;;;;;2.51;100.00;98780.22;4995672;28;20427;-78
2022/12/09 08:25:24;;;;;;;9.52;6.30;;;;;;;2.87;100.00;98812.72;4990186;28;20054;-78
2022/12/09 08:27:49;;;;;;;16.58;7.25;;;;;;;3.06;100.00;98794.78;5007406;28;20375;-78
2022/12/09 08:30:16;;;;;;;13.20;8.15;;;;;;;3.37;100.00;98814.22;4992014;28;20501;-78
2022/12/09 08:32:41;;;;;;;14.55;7.82;;;;;;;3.34;100.00;98790.66;5006917;28;20050;-78
2022/12/09 08:35:13;;;;;;;16.33;8.25;;;;;;;3.50;100.00;98792.00;4997295;28;20080;-78
2022/12/09 08:37:42;;;;;;;12.52;7.80;;;;;;;3.47;100.00;98781.56;5010580;28;20042;-78
2022/12/09 08:40:09;;;;;;;12.30;7.47;;;;;;;3.63;100.00;98793.44;4995735;28;20033;-78
2022/12/09 08:42:35;;;;;;;14.52;8.73;;;;;;;3.79;100.00;98790.38;4995839;28;20026;-79
2022/12/09 08:45:00;;;;;;;13.38;7.47;;;;;;;3.92;100.00;98791.78;4997430;28;20032;-79
2022/12/09 08:47:27;;;;;;;15.00;8.15;;;;;;;4.00;100.00;98773.19;5014407;28;20018;-79
2022/12/09 08:49:52;;;;;;;25.83;7.68;;;;;;;3.84;99.50;98751.69;5015783;28;20109;-80
2022/12/09 08:52:18;;;;;;;15.98;8.60;;;;;;;3.81;96.82;98803.50;5014483;28;20058;-79
2022/12/09 08:54:43;;;;;;;13.13;7.03;;;;;;;3.55;96.39;98780.50;5007642;28;20026;-79
2022/12/09 08:57:09;;;;;;;14.68;8.10;;;;;;;3.49;96.34;98813.94;4996510;28;20030;-79
2022/12/09 08:59:34;;;;;;;12.82;7.32;;;;;;;3.28;95.76;98777.66;4995112;28;20029;-79
2022/12/09 09:02:00;;;;;;;12.57;7.40;;;;;;;3.19;95.94;98783.13;5019683;28;20042;-79
2022/12/09 09:04:25;;;;;;;13.13;8.18;;;;;;;3.00;96.15;98752.94;4995576;28;20065;-79
2022/12/09 09:06:51;;;;;;;15.30;9.65;;;;;;;3.20;96.83;98782.19;4994447;28;20026;-78
2022/12/09 09:09:18;;;;;;;14.80;8.93;;;;;;;3.32;96.83;98792.44;4995597;28;20035;-79
2022/12/09 09:11:44;;;;;;;14.23;9.13;;;;;;;3.32;97.19;98776.66;4994872;28;20104;-79
2022/12/09 09:14:11;;;;;;;16.10;8.95;;;;;;;3.43;97.91;98780.78;4996083;28;20038;-79
2022/12/09 09:16:39;;;;;;;12.82;7.30;;;;;;;3.62;98.15;98789.97;4996164;28;20026;-79
2022/12/09 09:19:05;;;;;;;19.13;9.45;;;;;;;3.71;98.02;98797.59;4996159;28;20146;-79
2022/12/09 09:21:31;;;;;;;14.00;8.50;;;;;;;3.65;97.86;98770.59;5012041;28;20023;-79
2022/12/09 09:23:57;;;;;;;11.95;7.85;;;;;;;3.73;97.22;98784.41;5003692;28;20077;-79
2022/12/09 09:26:24;;;;;;;16.05;8.25;;;;;;;3.65;97.11;98768.84;5015593;28;20074;-80
2022/12/09 09:28:50;;;;;;;15.35;8.02;;;;;;;3.50;97.01;98734.19;5008063;28;20117;-80
2022/12/09 09:31:18;;;;;;;13.20;7.10;;;;;;;3.56;96.53;98748.03;4992411;28;20046;-79
2022/12/09 09:33:45;;;;;;;15.90;8.50;;;;;;;3.84;96.77;98793.75;4975504;28;20027;-78
2022/12/09 09:36:20;;;;;;;13.13;7.97;;;;;;;3.72;95.99;98766.94;5009023;28;20496;-79
2022/12/09 09:38:47;;;;;;;16.77;7.93;;;;;;;3.64;95.52;98751.31;5015659;28;20089;-79
2022/12/09 09:41:24;;;;;;;14.18;7.28;;;;;;;3.96;95.74;98789.97;5012116;28;20029;-78
2022/12/09 09:43:50;;;;;;;11.57;7.13;;;;;;;4.02;95.17;98788.03;4991293;28;20026;-78
2022/12/09 09:46:24;;;;;;;12.95;7.90;;;;;;;4.14;95.09;98791.22;4991561;28;20030;-78
2022/12/09 09:48:51;;;;;;;13.02;7.35;;;;;;;4.15;94.79;98764.91;4991538;28;20058;-79
2022/12/09 09:51:19;;;;;;;13.13;7.63;;;;;;;4.29;93.72;98785.56;4979106;28;20020;-79
2022/12/09 09:53:49;;;;;;;13.13;8.13;;;;;;;4.36;93.49;98787.13;4995179;28;20034;-81
2022/12/09 09:56:17;;;;;;;14.98;8.55;;;;;;;4.60;93.68;98800.47;5004243;28;20436;-81
2022/12/09 09:59:01;;;;;;;14.10;7.43;;;;;;;4.76;93.07;98793.84;4998108;28;20026;-81
2022/12/09 10:01:30;;;;;;;;;;;;;;;5.06;93.25;98787.69;4978233;28;20034;-82
2022/12/09 10:03:55;;;;;;;12.85;7.43;;;;;;;5.38;91.92;98784.94;4996580;28;19910;-81
2022/12/09 10:06:30;;;;;;;13.02;7.80;;;;;;;5.50;90.59;98781.06;4996120;28;20072;-81
2022/12/09 10:09:02;;;;;;;12.52;6.90;;;;;;;5.62;88.78;98783.28;4992968;28;20038;-81
2022/12/09 10:11:36;;;;;;;11.52;6.00;;;;;;;5.70;87.89;98769.84;4978874;28;20035;-81
2022/12/09 10:14:18;;;;;;;14.90;7.13;;;;;;;6.02;87.21;98781.06;4989658;28;20022;-81
2022/12/09 10:17:08;;;;;;;12.82;7.60;;;;;;;6.37;85.94;98775.44;5003863;28;20467;-80
2022/12/09 10:19:38;;;;;;;13.65;8.15;;;;;;;6.62;83.77;98767.50;5011156;28;20086;-81
2022/12/09 10:22:20;;;;;;;13.50;8.25;;;;;;;7.08;83.29;98775.41;5015941;28;20120;-80
2022/12/09 10:24:56;;;;;;;13.00;7.28;;;;;;;7.89;78.49;98765.97;5013159;28;20022;-81
2022/12/09 10:27:33;;;;;;;11.13;7.88;;;;;;;8.01;75.48;98760.13;5019568;28;20116;-80
2022/12/09 10:30:05;;;;;;;14.07;6.90;;;;;;;7.98;74.12;98758.47;4989232;28;20056;-81
2022/12/09 10:32:33;;;;;;;12.02;6.32;;;;;;;7.61;73.34;98734.44;5004125;28;20026;-80
2022/12/09 10:34:59;;;;;;;13.40;6.85;;;;;;;7.11;72.48;98730.34;5014780;28;20022;-80
2022/12/09 10:37:34;;;;;;;15.05;6.78;;;;;;;6.74;73.20;98753.81;5025403;28;20064;-80
2022/12/09 10:40:06;;;;;;;12.55;6.18;;;;;;;6.58;75.34;98755.31;5026070;28;20053;-79
2022/12/09 10:45:48;;;;;;;13.10;6.85;;;;;;;6.10;77.70;98735.94;5009713;28;20094;-79
2022/12/09 10:48:28;;;;;;;19.63;7.50;;;;;;;6.11;79.04;98748.22;4982621;28;20046;-78
2022/12/09 10:50:56;;;;;;;14.20;7.38;;;;;;;6.08;79.48;98743.91;4983759;28;20026;-79
2022/12/09 10:53:23;;;;;;;10.30;6.35;;;;;;;6.04;80.16;98723.81;5004886;28;20030;-79
2022/12/09 10:55:51;;;;;;;13.40;6.72;;;;;;;6.04;79.88;98728.22;5005573;28;20057;-79
2022/12/09 10:58:20;;;;;;;13.15;7.10;;;;;;;5.97;80.03;98732.88;5013021;28;20090;-78
2022/12/09 11:01:12;;;;;;;13.80;6.95;;;;;;;5.98;80.17;98734.56;5023547;28;20022;-80
2022/12/09 11:03:40;;;;;;;14.32;7.38;;;;;;;6.02;80.19;98745.91;5021548;28;20031;-81
2022/12/09 11:06:26;;;;;;;13.38;7.32;;;;;;;5.97;80.93;98726.72;5004439;28;20041;-80
2022/12/09 11:08:57;;;;;;;13.30;7.30;;;;;;;6.17;81.80;98729.53;5007167;28;20478;-80
2022/12/09 11:12:03;;;;;;;15.95;7.85;;;;;;;6.21;83.25;98732.00;5007694;28;20045;-79
2022/12/09 11:14:34;;;;;;;10.32;6.47;;;;;;;6.03;82.08;98716.81;4939691;29;20028;-79
2022/12/09 11:17:15;;;;;;;14.98;7.38;;;;;;;5.98;80.74;98717.91;4930430;29;20118;-80
2022/12/09 11:19:42;;;;;;;18.20;7.28;;;;;;;5.83;79.83;98715.78;4965016;28;20035;-80
2022/12/09 11:22:32;;;;;;;13.52;7.53;;;;;;;5.81;79.63;98720.22;5016256;28;20027;-81
2022/12/09 11:25:17;;;;;;;11.10;7.50;;;;;;;5.82;80.01;98711.38;5019886;28;20017;-80
2022/12/09 11:27:54;;;;;;;11.68;7.53;;;;;;;5.85;80.73;98722.72;5029834;28;20101;-80
2022/12/09 11:30:35;;;;;;;15.55;9.38;;;;;;;5.83;80.07;98713.16;5019843;28;20037;-80
2022/12/09 11:33:06;;;;;;;15.45;8.93;;;;;;;5.94;80.61;98711.00;5007148;28;20027;-79